Time;durP1;ratioP1;P1;durP2;ratioP2;P2;SDS_P1;SDS_P2;PMS_P1;PMS_P2;Temp;Humidity;BMP_temperature;BMP_pressure;BME280_temperature;BME280_humidity;BME280_pressure;Samples;Min_cycle;Max_cycle;Signal;HPM_P1;HPM_P2
2023/01/20 00:01:17;;;;;;;22.73;12.00;;;1.70;99.90;;;;;;5048356;28;20583;-68
2023/01/20 00:03:44;;;;;;;22.27;12.20;;;1.70;99.90;;;;;;5047404;28;20206;-68
2023/01/20 00:06:11;;;;;;;21.27;12.23;;;1.60;99.90;;;;;;5047415;28;20858;-68
2023/01/20 00:08:38;;;;;;;21.13;11.77;;;1.60;99.90;;;;;;5044759;28;20220;-68
2023/01/20 00:11:06;;;;;;;20.47;11.50;;;1.60;99.90;;;;;;5046084;28;20205;-70
2023/01/20 00:13:34;;;;;;;19.87;11.90;;;1.60;99.90;;;;;;5031336;28;20210;-67
2023/01/20 00:16:06;;;;;;;20.47;11.47;;;1.60;99.90;;;;;;5046517;28;20673;-68
2023/01/20 00:18:33;;;;;;;19.80;11.00;;;1.60;99.90;;;;;;5047174;28;20214;-67
2023/01/20 00:21:05;;;;;;;21.33;11.57;;;1.50;99.90;;;;;;5028401;28;20292;-67
2023/01/20 00:23:32;;;;;;;22.40;11.87;;;1.50;99.90;;;;;;5047796;28;20786;-68
2023/01/20 00:26:04;;;;;;;18.47;10.47;;;1.50;99.90;;;;;;5045877;28;20221;-68
2023/01/20 00:28:30;;;;;;;19.60;11.43;;;1.50;99.90;;;;;;5045349;28;20205;-68
2023/01/20 00:30:57;;;;;;;17.90;9.60;;;1.50;99.90;;;;;;5043241;28;20214;-69
2023/01/20 00:33:24;;;;;;;20.57;11.10;;;1.50;99.90;;;;;;5045515;28;20204;-68
2023/01/20 00:35:51;;;;;;;20.73;10.60;;;1.40;99.90;;;;;;5042708;28;20202;-68
2023/01/20 00:38:17;;;;;;;19.90;10.67;;;1.40;99.90;;;;;;5047311;28;20203;-67
2023/01/20 00:40:52;;;;;;;21.87;12.30;;;1.40;99.90;;;;;;5044252;28;20327;-67
2023/01/20 00:43:19;;;;;;;22.43;12.03;;;1.50;99.90;;;;;;5037806;28;20301;-68
2023/01/20 00:45:46;;;;;;;18.27;11.10;;;1.50;99.90;;;;;;5043795;28;20229;-68
2023/01/20 00:48:13;;;;;;;21.77;10.97;;;1.50;99.90;;;;;;5038049;28;20226;-67
2023/01/20 00:50:39;;;;;;;18.73;10.77;;;1.50;99.90;;;;;;5046747;28;20202;-68
2023/01/20 00:53:06;;;;;;;20.73;11.00;;;1.60;99.90;;;;;;5044862;28;20758;-67
2023/01/20 00:55:33;;;;;;;20.70;10.87;;;1.60;99.90;;;;;;5043265;28;20206;-68
2023/01/20 00:57:59;;;;;;;20.97;11.13;;;1.60;99.90;;;;;;5045019;28;20293;-68
2023/01/20 01:00:26;;;;;;;20.63;11.47;;;1.60;99.90;;;;;;5043545;28;20744;-68
2023/01/20 01:02:53;;;;;;;22.07;11.10;;;1.60;99.90;;;;;;5046218;28;20595;-67
2023/01/20 01:05:21;;;;;;;19.80;11.10;;;1.60;99.90;;;;;;5043911;28;20209;-66
2023/01/20 01:07:48;;;;;;;20.53;11.47;;;1.60;99.90;;;;;;5042604;28;20211;-68
2023/01/20 01:10:15;;;;;;;19.47;10.87;;;1.60;99.90;;;;;;5044976;28;20289;-68
2023/01/20 01:12:42;;;;;;;17.10;10.10;;;1.60;99.90;;;;;;5032571;28;20206;-67
2023/01/20 01:15:09;;;;;;;18.17;10.50;;;1.60;99.90;;;;;;5042913;28;20594;-68
2023/01/20 01:17:35;;;;;;;17.43;9.97;;;1.60;99.90;;;;;;5040377;28;20253;-67
2023/01/20 01:20:03;;;;;;;18.63;10.13;;;1.60;99.90;;;;;;5026120;28;20214;-68
2023/01/20 01:22:32;;;;;;;17.00;10.10;;;1.60;99.90;;;;;;5044931;28;20547;-68
2023/01/20 01:24:58;;;;;;;17.47;10.43;;;1.60;99.90;;;;;;5031879;28;20202;-67
2023/01/20 01:27:27;;;;;;;20.87;11.27;;;1.60;99.90;;;;;;5043585;28;20227;-68
2023/01/20 01:29:54;;;;;;;16.57;10.30;;;1.60;99.90;;;;;;5044921;28;20566;-68
2023/01/20 01:32:22;;;;;;;21.63;11.37;;;1.60;99.90;;;;;;5041983;28;20224;-67
2023/01/20 01:34:48;;;;;;;18.70;11.50;;;1.60;99.90;;;;;;5028668;28;20305;-67
2023/01/20 01:37:15;;;;;;;20.97;11.20;;;1.60;99.90;;;;;;5044131;28;20304;-67
2023/01/20 01:39:42;;;;;;;22.37;12.10;;;1.70;99.90;;;;;;5045081;28;20258;-67
2023/01/20 01:42:14;;;;;;;20.07;12.03;;;1.70;99.90;;;;;;5040858;28;20232;-68
2023/01/20 01:45:08;;;;;;;22.63;12.60;;;1.70;99.90;;;;;;5027511;28;20658;-68
2023/01/20 01:47:41;;;;;;;24.17;12.63;;;1.70;99.90;;;;;;5039278;28;20274;-67
2023/01/20 01:50:12;;;;;;;24.93;12.87;;;1.70;99.90;;;;;;5040686;28;20238;-69
2023/01/20 01:52:43;;;;;;;30.13;14.40;;;1.60;99.90;;;;;;5044148;28;20213;-68
2023/01/20 01:55:11;;;;;;;31.57;15.47;;;1.70;99.90;;;;;;5043771;28;20202;-68
2023/01/20 01:57:39;;;;;;;30.63;15.03;;;1.70;99.90;;;;;;5042326;28;20212;-68
2023/01/20 02:00:06;;;;;;;31.37;15.33;;;1.60;99.90;;;;;;5037567;28;20198;-68
2023/01/20 02:02:34;;;;;;;31.60;16.23;;;1.60;99.90;;;;;;5045171;28;20219;-69
2023/01/20 02:05:02;;;;;;;35.00;17.67;;;1.60;99.90;;;;;;5040904;28;20215;-68
2023/01/20 02:07:31;;;;;;;35.40;16.83;;;1.60;99.90;;;;;;5047268;28;20239;-68
2023/01/20 02:09:59;;;;;;;39.97;18.17;;;1.60;99.90;;;;;;5045439;28;20207;-68
2023/01/20 02:12:27;;;;;;;40.07;18.60;;;1.60;99.90;;;;;;5046346;28;20659;-69
2023/01/20 02:14:58;;;;;;;42.73;18.27;;;1.60;99.90;;;;;;5041589;28;20207;-68
2023/01/20 02:17:43;;;;;;;43.37;18.37;;;1.60;99.90;;;;;;5041696;28;20320;-68
2023/01/20 02:20:35;;;;;;;38.73;18.80;;;1.60;99.90;;;;;;5047159;28;20604;-67
2023/01/20 02:23:13;;;;;;;43.07;19.73;;;1.60;99.90;;;;;;5039538;28;20216;-68
2023/01/20 02:25:59;;;;;;;50.63;20.77;;;1.60;99.90;;;;;;5047630;28;20251;-68
2023/01/20 02:29:14;;;;;;;44.13;20.30;;;1.60;99.90;;;;;;5047009;28;20306;-67
2023/01/20 02:32:08;;;;;;;43.93;20.00;;;1.50;99.90;;;;;;5041205;28;20254;-68
2023/01/20 02:34:47;;;;;;;47.83;21.20;;;1.50;99.90;;;;;;5042120;28;20206;-67
2023/01/20 02:37:20;;;;;;;48.47;20.67;;;1.50;99.90;;;;;;5029320;28;20304;-67
2023/01/20 02:40:23;;;;;;;45.83;19.67;;;1.50;99.90;;;;;;5042541;28;20241;-68
2023/01/20 02:43:13;;;;;;;46.07;21.03;;;1.50;99.90;;;;;;5025967;28;20194;-68
2023/01/20 02:46:00;;;;;;;47.10;21.67;;;1.40;99.90;;;;;;5028793;28;20209;-68
2023/01/20 02:48:43;;;;;;;46.77;21.43;;;1.50;99.90;;;;;;5043101;28;20675;-68
2023/01/20 02:51:17;;;;;;;47.40;21.77;;;1.50;99.90;;;;;;5045595;28;20296;-68
2023/01/20 02:53:51;;;;;;;45.93;21.03;;;1.50;99.90;;;;;;5041150;28;20549;-68
2023/01/20 02:56:22;;;;;;;45.87;20.70;;;1.60;99.90;;;;;;5039136;28;20315;-68
2023/01/20 02:58:54;;;;;;;45.87;21.07;;;1.50;99.90;;;;;;5040709;28;20717;-68
2023/01/20 03:01:51;;;;;;;49.30;20.53;;;1.60;99.90;;;;;;5029998;28;20218;-67
2023/01/20 03:04:23;;;;;;;44.07;22.17;;;1.60;99.90;;;;;;5038803;28;20221;-68
2023/01/20 03:06:53;;;;;;;46.20;21.23;;;1.60;99.90;;;;;;5041081;28;20231;-67
2023/01/20 03:09:26;;;;;;;44.47;21.30;;;1.70;99.90;;;;;;5035852;28;20190;-68
2023/01/20 03:11:59;;;;;;;46.10;20.97;;;1.70;99.90;;;;;;5044153;28;20314;-68
2023/01/20 03:14:26;;;;;;;46.37;20.40;;;1.70;99.90;;;;;;5051515;28;20201;-68
2023/01/20 03:16:53;;;;;;;46.50;20.97;;;1.70;99.90;;;;;;5041558;28;20222;-68
2023/01/20 03:19:20;;;;;;;45.87;21.70;;;1.70;99.90;;;;;;5043210;28;20208;-68
2023/01/20 03:21:47;;;;;;;49.83;20.70;;;1.70;99.90;;;;;;5038820;28;20214;-68
2023/01/20 03:24:14;;;;;;;47.50;21.17;;;1.70;99.90;;;;;;5044159;28;20198;-69
2023/01/20 03:26:41;;;;;;;48.97;21.47;;;1.70;99.90;;;;;;5048470;28;20228;-68
2023/01/20 03:29:14;;;;;;;47.30;20.83;;;1.70;99.90;;;;;;5051221;28;20211;-68
2023/01/20 03:31:46;;;;;;;50.10;21.83;;;1.70;99.90;;;;;;5042488;28;20232;-67
2023/01/20 03:34:18;;;;;;;48.50;21.50;;;1.70;99.90;;;;;;5039476;28;20565;-67
2023/01/20 03:36:45;;;;;;;39.90;20.23;;;1.80;99.90;;;;;;5043449;28;20205;-67
2023/01/20 03:39:12;;;;;;;42.80;19.53;;;1.80;99.90;;;;;;5042322;28;20225;-68
2023/01/20 03:42:06;;;;;;;46.00;21.20;;;1.70;99.90;;;;;;5048244;28;20210;-68
2023/01/20 03:44:46;;;;;;;43.70;20.80;;;1.70;99.90;;;;;;5040476;28;20213;-68
2023/01/20 03:47:18;;;;;;;48.40;20.93;;;1.70;99.90;;;;;;5043829;28;20223;-69
2023/01/20 03:49:51;;;;;;;47.50;22.47;;;1.70;99.90;;;;;;5043107;28;20210;-69
2023/01/20 03:52:33;;;;;;;51.37;21.47;;;1.70;99.90;;;;;;5040411;28;20213;-68
2023/01/20 03:55:25;;;;;;;49.93;21.33;;;1.80;99.90;;;;;;5027648;28;20214;-68
2023/01/20 03:58:05;;;;;;;47.27;22.27;;;1.80;99.90;;;;;;5050090;28;20647;-67
2023/01/20 04:00:35;;;;;;;50.13;22.27;;;1.80;99.90;;;;;;5046070;28;20280;-68
2023/01/20 04:03:07;;;;;;;48.93;22.23;;;1.80;99.90;;;;;;5049720;28;20629;-68
2023/01/20 04:05:36;;;;;;;55.20;22.70;;;1.70;99.90;;;;;;5049273;28;20205;-69
2023/01/20 04:08:06;;;;;;;56.60;24.70;;;1.80;99.90;;;;;;5045009;28;20657;-68
2023/01/20 04:10:37;;;;;;;60.33;24.33;;;1.80;99.90;;;;;;5048506;28;20285;-68
2023/01/20 04:13:04;;;;;;;55.97;25.43;;;1.70;99.90;;;;;;5046029;28;20554;-68
2023/01/20 04:15:43;;;;;;;58.53;26.43;;;1.70;99.90;;;;;;5047858;28;20293;-69
2023/01/20 04:18:12;;;;;;;52.80;24.00;;;1.70;99.90;;;;;;5046840;28;20245;-69
2023/01/20 04:20:39;;;;;;;58.97;25.83;;;1.70;99.90;;;;;;5043675;28;20222;-66
2023/01/20 04:23:12;;;;;;;58.33;24.73;;;1.70;99.90;;;;;;5050142;28;20270;-68
2023/01/20 04:25:39;;;;;;;60.53;25.73;;;1.60;99.90;;;;;;5045943;28;20211;-67
2023/01/20 04:28:05;;;;;;;59.60;25.87;;;1.60;99.90;;;;;;5049865;28;20705;-68
2023/01/20 04:30:32;;;;;;;63.70;26.23;;;1.70;99.90;;;;;;5047222;28;20577;-68
2023/01/20 04:32:59;;;;;;;62.57;26.70;;;1.70;99.90;;;;;;5047714;28;20680;-68
2023/01/20 04:35:26;;;;;;;66.00;26.47;;;1.60;99.90;;;;;;5027367;28;20210;-68
2023/01/20 04:37:52;;;;;;;66.00;27.57;;;1.70;99.90;;;;;;5050685;28;20201;-68
2023/01/20 04:40:19;;;;;;;71.13;27.80;;;1.70;99.90;;;;;;5046427;28;20244;-68
2023/01/20 04:42:46;;;;;;;61.83;27.70;;;1.70;99.90;;;;;;5041439;28;20680;-68
2023/01/20 04:45:16;;;;;;;63.87;25.60;;;1.70;99.90;;;;;;5046238;28;20231;-68
2023/01/20 04:47:43;;;;;;;67.97;26.27;;;1.80;99.90;;;;;;5043651;28;20825;-68
2023/01/20 04:50:11;;;;;;;64.43;25.87;;;1.80;99.90;;;;;;5049500;28;20222;-67
2023/01/20 04:52:38;;;;;;;64.70;26.83;;;1.70;99.90;;;;;;5045062;28;20553;-68
2023/01/20 04:55:05;;;;;;;69.43;27.97;;;1.70;99.90;;;;;;5040507;28;20211;-68
2023/01/20 04:57:32;;;;;;;70.70;26.73;;;1.70;99.90;;;;;;5048802;28;20195;-67
2023/01/20 04:59:58;;;;;;;67.33;27.10;;;1.70;99.90;;;;;;5045130;28;20213;-68
2023/01/20 05:02:25;;;;;;;70.40;27.93;;;1.70;99.90;;;;;;5047184;28;20225;-68
2023/01/20 05:04:52;;;;;;;68.83;25.73;;;1.70;99.90;;;;;;5044713;28;20289;-68
2023/01/20 05:07:19;;;;;;;65.17;26.93;;;1.70;99.90;;;;;;5045148;28;20231;-68
2023/01/20 05:09:45;;;;;;;63.57;27.17;;;1.70;99.90;;;;;;5045875;28;20217;-68
2023/01/20 05:12:12;;;;;;;62.27;26.00;;;1.70;99.90;;;;;;5042592;28;20214;-68
2023/01/20 05:14:39;;;;;;;68.67;28.03;;;1.70;99.90;;;;;;5046354;28;20211;-68
2023/01/20 05:17:05;;;;;;;76.33;27.43;;;1.80;99.90;;;;;;5044411;28;20846;-68
2023/01/20 05:19:32;;;;;;;66.07;27.10;;;1.80;99.90;;;;;;5045760;28;20223;-68
2023/01/20 05:21:59;;;;;;;74.10;28.83;;;1.80;99.90;;;;;;5025435;28;20302;-68
2023/01/20 05:24:26;;;;;;;67.73;27.47;;;1.80;99.90;;;;;;5045967;28;20202;-68
2023/01/20 05:26:52;;;;;;;81.60;29.30;;;1.90;99.90;;;;;;5042735;28;20211;-68
2023/01/20 05:29:19;;;;;;;77.50;27.33;;;1.90;99.90;;;;;;5044506;28;20325;-68
2023/01/20 05:31:45;;;;;;;78.70;29.40;;;1.90;99.90;;;;;;5046281;28;20305;-68
2023/01/20 05:34:12;;;;;;;68.13;26.90;;;1.90;99.90;;;;;;5042184;28;20206;-67
2023/01/20 05:36:39;;;;;;;68.97;25.20;;;1.80;99.90;;;;;;5010272;28;20212;-68
2023/01/20 05:39:06;;;;;;;75.83;28.03;;;1.80;99.90;;;;;;5040902;28;20226;-66
2023/01/20 05:41:32;;;;;;;73.90;28.03;;;1.80;99.90;;;;;;5045682;28;20761;-69
2023/01/20 05:43:59;;;;;;;76.73;26.77;;;1.80;99.90;;;;;;5043680;28;20203;-67
2023/01/20 05:46:26;;;;;;;75.63;26.73;;;1.80;99.90;;;;;;5045626;28;20264;-68
2023/01/20 05:48:52;;;;;;;65.50;26.80;;;1.80;99.90;;;;;;5042234;28;20274;-67
2023/01/20 05:51:19;;;;;;;72.27;27.87;;;1.80;99.90;;;;;;5028109;28;20218;-67
2023/01/20 05:53:46;;;;;;;75.10;26.23;;;1.80;99.90;;;;;;5042474;28;20613;-68
2023/01/20 05:56:14;;;;;;;76.67;28.63;;;1.80;99.90;;;;;;5055830;28;20562;-69
2023/01/20 05:58:41;;;;;;;66.73;26.53;;;1.80;99.90;;;;;;5024789;28;20573;-68
2023/01/20 06:01:11;;;;;;;73.40;26.77;;;1.80;99.90;;;;;;5045082;28;20726;-67
2023/01/20 06:03:38;;;;;;;75.53;25.70;;;1.70;99.90;;;;;;5041115;28;20708;-68
2023/01/20 06:06:08;;;;;;;75.00;26.57;;;1.70;99.90;;;;;;5042097;28;20234;-67
2023/01/20 06:08:35;;;;;;;79.30;29.03;;;1.70;99.90;;;;;;5041379;28;20313;-67
2023/01/20 06:11:01;;;;;;;77.33;27.90;;;1.80;99.90;;;;;;5029640;28;20208;-68
2023/01/20 06:13:28;;;;;;;79.57;29.03;;;1.80;99.90;;;;;;5026076;28;20194;-67
2023/01/20 06:15:56;;;;;;;87.05;34.33;;;1.80;99.90;;;;;;5046216;28;20444;-68
2023/01/20 06:18:23;;;;;;;75.80;28.83;;;1.90;99.90;;;;;;5045932;28;20228;-68
2023/01/20 06:20:49;;;;;;;82.10;29.15;;;1.90;99.90;;;;;;5042692;28;20447;-67
2023/01/20 06:23:17;;;;;;;77.50;27.90;;;1.90;99.90;;;;;;5047283;28;20217;-69
2023/01/20 06:25:44;;;;;;;72.70;26.70;;;1.90;99.90;;;;;;5042974;28;20656;-67
2023/01/20 06:28:10;;;;;;;65.60;24.23;;;1.80;99.90;;;;;;5048445;28;20730;-68
2023/01/20 06:30:41;;;;;;;71.17;24.90;;;1.80;99.90;;;;;;5050138;28;20199;-68
2023/01/20 06:33:10;;;;;;;66.53;25.13;;;1.80;99.90;;;;;;5048218;28;20650;-68
2023/01/20 06:35:37;;;;;;;78.00;26.43;;;1.70;99.90;;;;;;5045209;28;20199;-68
2023/01/20 06:38:04;;;;;;;75.53;24.83;;;1.70;99.90;;;;;;5049498;28;20631;-67
2023/01/20 06:40:30;;;;;;;71.63;25.20;;;1.70;99.90;;;;;;5043710;28;20774;-68
2023/01/20 06:42:58;;;;;;;67.60;27.07;;;1.70;99.90;;;;;;5037091;28;20240;-68
2023/01/20 06:45:25;;;;;;;71.87;26.10;;;1.70;99.90;;;;;;5039267;28;20801;-67
2023/01/20 06:47:51;;;;;;;70.37;24.37;;;1.60;99.90;;;;;;5038824;28;20362;-69
2023/01/20 06:50:21;;;;;;;68.97;25.70;;;1.60;99.90;;;;;;5043367;28;20645;-68
2023/01/20 06:52:51;;;;;;;68.70;25.37;;;1.70;99.90;;;;;;5049270;28;20649;-67
2023/01/20 06:55:19;;;;;;;75.67;24.67;;;1.60;99.90;;;;;;5046992;28;20219;-68
2023/01/20 06:57:47;;;;;;;70.63;24.83;;;1.60;99.90;;;;;;5044790;28;20207;-68
2023/01/20 07:00:14;;;;;;;74.43;25.70;;;1.60;99.90;;;;;;5049258;28;20301;-68
2023/01/20 07:02:41;;;;;;;66.93;24.33;;;1.60;99.90;;;;;;5057020;28;20260;-72
2023/01/20 07:05:09;;;;;;;74.57;26.73;;;1.60;99.90;;;;;;5047451;28;20259;-72
2023/01/20 07:07:35;;;;;;;72.90;24.90;;;1.70;99.90;;;;;;5050407;28;20201;-72
2023/01/20 07:10:05;;;;;;;71.07;25.83;;;1.70;99.90;;;;;;5045682;28;20317;-72
2023/01/20 07:12:31;;;;;;;67.23;24.40;;;1.70;99.90;;;;;;5029101;28;20285;-66
2023/01/20 07:14:58;;;;;;;65.30;24.37;;;1.70;99.90;;;;;;5039265;28;20297;-66
2023/01/20 07:17:25;;;;;;;64.17;24.33;;;1.60;99.90;;;;;;5049049;28;20210;-67
2023/01/20 07:19:51;;;;;;;65.90;24.57;;;1.70;99.90;;;;;;5053159;28;20237;-67
2023/01/20 07:22:18;;;;;;;70.27;24.03;;;1.70;99.90;;;;;;5048472;28;20282;-66
2023/01/20 07:24:45;;;;;;;62.67;24.50;;;1.70;99.90;;;;;;5031650;28;20214;-67
2023/01/20 07:27:13;;;;;;;60.80;23.43;;;1.70;99.90;;;;;;5048551;28;20644;-67
2023/01/20 07:29:40;;;;;;;63.73;24.33;;;1.70;99.90;;;;;;5047476;28;20267;-67
2023/01/20 07:32:07;;;;;;;66.27;24.43;;;1.70;99.90;;;;;;5029727;28;20302;-67
2023/01/20 07:34:34;;;;;;;66.13;24.40;;;1.70;99.90;;;;;;5041917;28;20552;-67
2023/01/20 07:37:01;;;;;;;61.53;25.10;;;1.80;99.90;;;;;;5050885;28;20205;-68
2023/01/20 07:39:28;;;;;;;66.67;24.77;;;1.80;99.90;;;;;;5051735;28;20313;-68
2023/01/20 07:41:54;;;;;;;61.60;23.63;;;1.80;99.90;;;;;;5061500;28;20221;-67
2023/01/20 07:44:21;;;;;;;60.53;24.57;;;1.80;99.90;;;;;;5031521;28;20199;-68
2023/01/20 07:46:50;;;;;;;65.60;25.20;;;1.80;99.90;;;;;;5036938;28;20218;-67
2023/01/20 07:49:17;;;;;;;66.67;24.60;;;1.90;99.90;;;;;;5049704;28;20662;-68
2023/01/20 07:51:43;;;;;;;73.50;24.10;;;1.90;99.90;;;;;;5040546;28;20586;-67
2023/01/20 07:54:13;;;;;;;66.40;24.43;;;1.90;99.90;;;;;;5047697;28;20203;-67
2023/01/20 07:56:40;;;;;;;60.73;24.30;;;2.00;99.90;;;;;;5051968;28;20202;-67
2023/01/20 07:59:08;;;;;;;60.83;22.63;;;2.00;99.90;;;;;;5049021;28;20581;-68
2023/01/20 08:01:35;;;;;;;63.00;23.57;;;2.00;99.90;;;;;;5046394;28;20572;-66
2023/01/20 08:04:03;;;;;;;68.03;24.90;;;1.90;99.90;;;;;;5044699;28;20221;-66
2023/01/20 08:06:30;;;;;;;66.93;25.63;;;2.00;99.90;;;;;;5044189;28;20193;-66
2023/01/20 08:09:00;;;;;;;62.53;24.87;;;2.00;99.90;;;;;;5046725;28;20306;-66
2023/01/20 08:11:27;;;;;;;60.80;23.93;;;2.10;99.90;;;;;;5045649;28;20286;-66
2023/01/20 08:13:54;;;;;;;68.33;23.97;;;2.10;99.90;;;;;;5048386;28;20230;-68
2023/01/20 08:16:21;;;;;;;62.63;24.73;;;2.10;99.90;;;;;;5048896;28;20199;-67
2023/01/20 08:18:47;;;;;;;58.43;23.63;;;2.10;99.90;;;;;;5050915;28;20208;-66
2023/01/20 08:21:20;;;;;;;62.43;24.33;;;2.20;99.90;;;;;;5047311;28;20660;-67
2023/01/20 08:23:47;;;;;;;63.07;24.37;;;2.20;99.90;;;;;;5050001;28;20231;-67
2023/01/20 08:26:14;;;;;;;56.87;24.47;;;2.30;99.90;;;;;;5048472;28;20219;-67
2023/01/20 08:28:41;;;;;;;62.23;24.30;;;2.30;99.90;;;;;;5044250;28;20219;-67
2023/01/20 08:31:11;;;;;;;73.17;25.47;;;2.30;99.90;;;;;;5051382;28;20257;-66
2023/01/20 08:33:41;;;;;;;69.33;26.23;;;2.30;99.90;;;;;;5028457;28;20220;-67
2023/01/20 08:36:15;;;;;;;69.40;25.43;;;2.30;99.90;;;;;;5048956;28;20621;-67
2023/01/20 08:38:42;;;;;;;67.03;26.10;;;2.40;99.90;;;;;;5046984;28;20233;-67
2023/01/20 08:41:12;;;;;;;68.03;25.57;;;2.40;99.90;;;;;;5050385;28;20227;-68
2023/01/20 08:43:39;;;;;;;69.37;25.03;;;2.40;99.90;;;;;;5026803;28;20207;-67
2023/01/20 08:46:10;;;;;;;61.77;24.87;;;2.40;99.90;;;;;;5044904;28;20201;-66
2023/01/20 08:48:38;;;;;;;66.50;25.67;;;2.40;99.90;;;;;;5040717;28;20618;-66
2023/01/20 08:51:08;;;;;;;59.77;24.40;;;2.50;99.90;;;;;;5043057;28;20751;-67
2023/01/20 08:53:35;;;;;;;66.60;27.13;;;2.50;99.90;;;;;;5050118;28;20204;-66
2023/01/20 08:56:03;;;;;;;66.97;25.83;;;2.50;99.90;;;;;;5046294;28;20205;-67
2023/01/20 08:58:29;;;;;;;65.17;25.67;;;2.50;99.90;;;;;;5048177;28;20815;-67
2023/01/20 09:00:56;;;;;;;74.70;27.20;;;2.50;99.90;;;;;;5046384;28;20720;-66
2023/01/20 09:03:23;;;;;;;68.13;26.40;;;2.60;99.90;;;;;;5048342;28;20227;-67
2023/01/20 09:05:50;;;;;;;71.03;27.70;;;2.50;99.90;;;;;;5045738;28;20204;-67
2023/01/20 09:08:18;;;;;;;67.87;25.00;;;2.60;99.90;;;;;;5050059;28;20243;-67
2023/01/20 09:10:45;;;;;;;66.03;26.17;;;2.60;99.90;;;;;;5044737;28;20280;-68
2023/01/20 09:13:12;;;;;;;64.97;24.70;;;2.60;99.90;;;;;;5047264;28;20300;-67
2023/01/20 09:15:38;;;;;;;69.13;25.17;;;2.60;99.90;;;;;;5043042;28;20225;-67
2023/01/20 09:18:05;;;;;;;73.10;26.70;;;2.60;99.90;;;;;;5043946;28;20216;-67
2023/01/20 09:20:32;;;;;;;69.27;27.27;;;2.60;99.90;;;;;;5031067;28;20196;-67
2023/01/20 09:23:01;;;;;;;68.80;25.73;;;2.60;99.90;;;;;;5042124;28;20673;-67
2023/01/20 09:25:28;;;;;;;67.13;26.63;;;2.70;99.90;;;;;;5044484;28;20259;-68
2023/01/20 09:27:58;;;;;;;68.23;26.67;;;2.60;99.90;;;;;;5046721;28;20611;-67
2023/01/20 09:30:25;;;;;;;63.77;25.30;;;2.60;99.90;;;;;;5046724;28;20216;-67
2023/01/20 09:32:54;;;;;;;73.23;27.20;;;2.60;99.90;;;;;;5050559;28;20212;-66
2023/01/20 09:35:20;;;;;;;75.17;27.20;;;2.60;99.90;;;;;;5043412;28;20197;-69
2023/01/20 09:44:12;;;;;;;74.77;26.40;;;2.70;99.90;;;;;;5054881;28;20565;-67
2023/01/20 09:53:29;;;;;;;67.80;25.40;;;2.70;99.90;;;;;;5044248;28;20215;-67
2023/01/20 09:55:58;;;;;;;75.23;26.33;;;2.70;99.90;;;;;;5045813;28;20566;-67
2023/01/20 09:58:47;;;;;;;75.53;26.27;;;2.70;99.90;;;;;;5045401;28;20230;-67
2023/01/20 10:01:53;;;;;;;74.57;27.50;;;2.70;99.90;;;;;;5045483;28;20303;-67
2023/01/20 10:04:31;;;;;;;72.97;27.57;;;2.70;99.90;;;;;;5047765;28;20203;-68
2023/01/20 10:07:22;;;;;;;68.43;26.07;;;2.70;99.90;;;;;;5048717;28;20261;-68
2023/01/20 10:09:57;;;;;;;69.30;25.97;;;2.80;99.90;;;;;;5051103;28;20313;-68
2023/01/20 10:12:32;;;;;;;69.57;26.00;;;2.70;99.90;;;;;;5043053;28;20283;-68
2023/01/20 10:15:14;;;;;;;69.20;26.87;;;2.80;99.90;;;;;;5033086;28;20211;-67
2023/01/20 10:17:57;;;;;;;73.70;27.77;;;2.80;99.90;;;;;;5043472;28;20231;-67
2023/01/20 10:20:41;;;;;;;72.30;27.83;;;2.80;99.90;;;;;;5049550;28;20220;-68
2023/01/20 10:23:32;;;;;;;72.20;26.50;;;2.80;99.90;;;;;;5033357;28;20960;-67
2023/01/20 10:26:19;;;;;;;66.00;25.67;;;2.80;99.90;;;;;;5050978;28;20207;-67
2023/01/20 10:29:00;;;;;;;59.07;24.30;;;2.90;99.90;;;;;;5035650;28;20228;-67
2023/01/20 10:31:32;;;;;;;65.93;24.90;;;2.90;99.90;;;;;;5050556;28;20226;-67
2023/01/20 10:34:11;;;;;;;58.27;24.07;;;2.90;99.90;;;;;;5067890;28;20622;-67
2023/01/20 10:36:43;;;;;;;61.37;25.03;;;2.90;99.90;;;;;;5045846;28;20212;-67
2023/01/20 10:39:28;;;;;;;63.40;25.47;;;3.00;99.90;;;;;;5052160;28;20251;-68
2023/01/20 10:42:02;;;;;;;62.00;24.30;;;3.00;99.90;;;;;;5049909;28;20220;-66
2023/01/20 10:44:33;;;;;;;56.17;23.50;;;3.10;99.90;;;;;;5050544;28;20197;-68
2023/01/20 10:47:19;;;;;;;63.07;25.10;;;3.10;99.90;;;;;;5052799;28;20213;-67
2023/01/20 10:49:52;;;;;;;54.87;23.77;;;3.20;99.90;;;;;;5030418;28;20228;-67
2023/01/20 10:52:50;;;;;;;57.20;23.33;;;3.20;99.90;;;;;;5048420;28;20198;-68
2023/01/20 10:55:44;;;;;;;60.00;23.57;;;3.20;99.90;;;;;;5050715;28;20620;-68
2023/01/20 10:58:10;;;;;;;56.33;22.50;;;3.20;99.90;;;;;;5052041;28;20203;-67
2023/01/20 11:00:40;;;;;;;59.57;23.77;;;3.20;99.90;;;;;;5053546;28;20232;-67
2023/01/20 11:03:13;;;;;;;55.53;22.17;;;3.20;99.90;;;;;;5053583;28;20220;-68
2023/01/20 11:05:41;;;;;;;56.80;22.27;;;3.30;99.90;;;;;;5048875;28;20204;-67
2023/01/20 11:08:18;;;;;;;57.40;22.93;;;3.30;99.90;;;;;;5046017;28;20558;-68
2023/01/20 11:10:48;;;;;;;51.27;22.93;;;3.30;99.90;;;;;;5045047;28;20704;-68
2023/01/20 11:13:16;;;;;;;51.73;23.03;;;3.30;99.90;;;;;;5038699;28;20292;-68
2023/01/20 11:15:46;;;;;;;62.60;24.07;;;3.30;99.90;;;;;;5041351;28;20219;-67
2023/01/20 11:18:13;;;;;;;54.07;21.87;;;3.30;99.90;;;;;;5050900;28;20326;-67
2023/01/20 11:20:47;;;;;;;55.60;23.53;;;3.30;99.90;;;;;;5042585;28;20212;-69
2023/01/20 11:23:37;;;;;;;55.40;23.90;;;3.40;99.90;;;;;;5048985;28;20293;-68
2023/01/20 11:26:20;;;;;;;55.73;22.83;;;3.40;99.90;;;;;;5044762;28;20196;-68
2023/01/20 11:29:29;;;;;;;55.40;21.73;;;3.40;99.90;;;;;;5049754;28;20228;-68
2023/01/20 11:31:58;;;;;;;57.13;21.63;;;3.30;99.90;;;;;;5052468;28;20537;-67
2023/01/20 11:34:30;;;;;;;53.90;24.60;;;3.40;99.90;;;;;;5047140;28;20509;-67
2023/01/20 11:37:05;;;;;;;58.27;23.07;;;3.40;99.90;;;;;;5050905;28;20280;-68
2023/01/20 11:39:42;;;;;;;58.60;22.73;;;3.40;99.90;;;;;;5051345;28;20239;-67
2023/01/20 11:42:22;;;;;;;58.27;23.87;;;3.40;99.90;;;;;;5048301;28;20201;-67
2023/01/20 11:44:56;;;;;;;56.67;23.63;;;3.40;99.90;;;;;;5043819;28;20288;-69
2023/01/20 11:47:35;;;;;;;54.10;23.97;;;3.40;99.90;;;;;;5032625;28;20213;-67
2023/01/20 11:50:07;;;;;;;58.37;23.60;;;3.40;99.90;;;;;;5045749;28;20728;-67
2023/01/20 11:52:36;;;;;;;55.43;22.50;;;3.40;99.90;;;;;;5049530;28;20293;-68
2023/01/20 11:55:13;;;;;;;57.67;25.50;;;3.40;99.90;;;;;;5048388;28;20660;-68
2023/01/20 11:57:47;;;;;;;55.43;23.80;;;3.40;99.90;;;;;;5047329;28;20202;-68
2023/01/20 12:00:29;;;;;;;62.03;26.40;;;3.40;99.90;;;;;;5047477;28;20198;-68
2023/01/20 12:03:01;;;;;;;57.50;24.10;;;3.40;99.90;;;;;;5046716;28;20231;-68
2023/01/20 12:06:03;;;;;;;61.97;23.70;;;3.40;99.90;;;;;;5043377;28;20333;-68
2023/01/20 12:08:51;;;;;;;57.20;24.47;;;3.40;99.90;;;;;;5050019;28;20299;-69
2023/01/20 12:11:33;;;;;;;53.87;23.80;;;3.40;99.90;;;;;;5048962;28;20651;-69
2023/01/20 12:14:28;;;;;;;52.97;23.47;;;3.40;99.90;;;;;;5048077;28;20266;-69
2023/01/20 12:17:22;;;;;;;51.10;22.47;;;3.40;99.90;;;;;;5044086;28;20221;-67
2023/01/20 12:20:03;;;;;;;49.37;22.27;;;3.50;99.90;;;;;;5043035;28;20553;-67
2023/01/20 12:23:03;;;;;;;51.00;22.83;;;3.50;99.90;;;;;;5046405;28;20582;-68
2023/01/20 12:25:42;;;;;;;52.20;22.60;;;3.50;99.90;;;;;;5046332;28;20237;-67
2023/01/20 12:28:21;;;;;;;50.90;21.03;;;3.60;99.90;;;;;;5036245;28;20267;-67
2023/01/20 12:30:58;;;;;;;44.23;20.47;;;3.70;99.90;;;;;;5046645;28;20248;-66
2023/01/20 12:33:31;;;;;;;43.97;20.47;;;3.60;99.90;;;;;;5044958;28;20218;-67
2023/01/20 12:36:23;;;;;;;47.20;21.50;;;3.60;99.90;;;;;;5034262;28;20301;-67
2023/01/20 12:39:27;;;;;;;46.60;21.30;;;3.70;99.90;;;;;;5029482;28;20197;-66
2023/01/20 12:42:05;;;;;;;48.83;21.43;;;3.60;99.90;;;;;;5039892;28;20232;-68
2023/01/20 12:44:41;;;;;;;42.37;20.43;;;3.60;99.90;;;;;;5047048;28;20288;-68
2023/01/20 12:47:29;;;;;;;40.47;19.47;;;3.60;99.90;;;;;;5033632;28;20371;-68
2023/01/20 12:50:10;;;;;;;40.07;18.23;;;3.70;99.90;;;;;;5020266;28;20220;-68
2023/01/20 12:52:47;;;;;;;35.53;17.80;;;3.60;99.90;;;;;;5044080;28;20644;-68
2023/01/20 12:55:16;;;;;;;40.37;18.90;;;3.60;99.90;;;;;;5031527;28;20215;-67
2023/01/20 12:57:57;;;;;;;40.80;18.43;;;3.60;99.90;;;;;;5047235;28;20201;-67
2023/01/20 13:00:48;;;;;;;37.57;17.83;;;3.60;99.90;;;;;;5040523;28;20231;-67
2023/01/20 13:03:49;;;;;;;37.07;17.50;;;3.60;99.90;;;;;;5041970;28;20221;-67
2023/01/20 13:06:30;;;;;;;38.47;17.70;;;3.60;99.90;;;;;;5042990;28;20219;-68
2023/01/20 13:09:23;;;;;;;36.30;16.77;;;3.60;99.90;;;;;;5037979;28;20205;-68
2023/01/20 13:12:08;;;;;;;37.97;17.63;;;3.60;99.90;;;;;;5021759;28;20206;-68
2023/01/20 13:14:44;;;;;;;34.60;17.73;;;3.60;99.90;;;;;;5045363;28;20221;-67